Portada
METAR-TAF:

METAR-TAF

Aeroports :

Savannakhet, Laos

latitud: 16-33-24N, longitud: 104-45-34E, altitud: 155 m

Observació

L'informe es va fer fa 5 hores i 43 minuts, a les 12:00 UTC
Vent 2 kt del Oest/Sud-Oest
Temperatura 36°C
Humitat 33%
Pressió 1006 hPa
Visibilitat: 5000 m
Escasses núvols a una alçada de 2000 ft
calitja

METAR: VLSK 311200Z 24002KT 5000 HZ FEW020 36/17 Q1006 NOSIG

Hora: 00:43 (17:43 UTC)

Pronòstic

L'informe es va fer fa 6 hores i 43 minuts, a les 11:00 UTC
Pronòstic vàlid del 31 a les 12 UTC al 01 a les 12 UTC
Vent 4 kt del Sud-Oest
Visibilitat: 7000 m
Núvols disperses a una alçada de 2000 ft
Escasses núvols a una alçada de 10000 ft
Temporalment
l' 31 a les 14 UTC al 31 a les 20 UTC
Visibilitat: 3000 m
Escasses núvols a una alçada de 4000 ft
boirina

TAF: VLSK 311100Z 3112/0112 22004KT 7000 SCT020 FEW100 TEMPO 3114/3120 3000 BR FEW040

Observacions i pronòstics meteorològics de més de 4000 aeroports (METAR i TAF).

Les estacions disponibles són els punts grocs i vermells al mapa.

Posi el ratolí al punt desitjat per veure el nom de l'estació.

Feu clic per veure les observacions i els pronòstics meteorològics.

Per canviar el mapa: feu clic els botons verds amb una creu de color negre per apropar; al botó verd amb un guió per allunyar la imatge; o en les fletxes verdes per a mapes adjacents.


METAR-TAF: